Avon, New York
Current Conditions -  °F | °C
As of 3:54 PM on Friday 24 Oct 2014 (Local Time) from KROC Reporting Station
Broken Clouds Broken Clouds  
Wind Chill: 59°   Ceiling: 18000
Heat Index: 59°   Visibility: 10mi
Dew Point: 39°   Wind: 15mph
Humidity: 48%   Direction: 270°W
Pressure: 29.92"   Gusts: NA
Location:  42.91°N, 77.75°W
Report Text: KROC 241954Z 27013KT 10SM BKN180 15/04 A2992 RMK AO2 SLP137 T01500039
Loading
Personal Weather Stations






























Interactive Weather Map
Tropical Storm Tracking
New forecast layout! Learn more

10-Day Weather Forecast

Advertisements
Track Severe Weather on mobile